Time;durP1;ratioP1;P1;durP2;ratioP2;P2;SDS_P1;SDS_P2;PMS_P1;PMS_P2;Temp;Humidity;BMP_temperature;BMP_pressure;BME280_temperature;BME280_humidity;BME280_pressure;Samples;Min_cycle;Max_cycle;Signal;HPM_P1;HPM_P2
2021/03/28 00:00:28;;;;;;;5.10;3.70;;;;;;;5.35;100.00;101219.69;232979;1203;103500;-73
2021/03/28 00:05:45;;;;;;;10.40;6.07;;;;;;;5.40;100.00;101217.89;232898;1203;103558;-73
2021/03/28 00:10:51;;;;;;;10.17;5.50;;;;;;;5.23;100.00;101220.61;232865;1203;103222;-72
2021/03/28 00:15:55;;;;;;;7.00;5.30;;;;;;;5.07;100.00;101222.45;232614;1203;103226;-73
2021/03/28 00:21:18;;;;;;;7.75;5.15;;;;;;;4.94;100.00;101240.11;232839;1203;103219;-72
2021/03/28 00:26:40;;;;;;;10.43;6.27;;;;;;;5.05;100.00;101237.43;232817;1203;103223;-74
2021/03/28 00:32:11;;;;;;;6.60;4.90;;;;;;;4.75;100.00;101228.73;232595;1203;103258;-73
2021/03/28 00:37:12;;;;;;;8.03;5.77;;;;;;;4.86;100.00;101230.45;232783;1203;103148;-74
2021/03/28 00:42:50;;;;;;;8.55;5.25;;;;;;;4.80;100.00;101223.42;232794;1203;103834;-72
2021/03/28 00:48:15;;;;;;;6.87;5.27;;;;;;;4.79;100.00;101221.69;232859;1203;103207;-74
2021/03/28 00:53:39;;;;;;;;;;;;;;;4.84;100.00;101227.83;232833;1210;103223;-74
2021/03/28 00:58:51;;;;;;;6.23;5.63;;;;;;;4.77;100.00;101226.09;232694;1203;103142;-72
2021/03/28 01:04:34;;;;;;;6.05;4.70;;;;;;;4.48;100.00;101229.66;232757;1203;103278;-72
2021/03/28 01:10:21;;;;;;;7.00;5.60;;;;;;;4.59;100.00;101222.59;232822;1203;103232;-73
2021/03/28 01:16:00;;;;;;;8.35;6.08;;;;;;;4.39;100.00;101232.30;232797;1203;103221;-74
2021/03/28 01:21:20;;;;;;;5.40;4.70;;;;;;;4.24;100.00;101241.98;232886;1203;103223;-73
2021/03/28 01:26:51;;;;;;;5.90;4.60;;;;;;;4.24;100.00;101241.13;232869;1203;103527;-73
2021/03/28 01:31:56;;;;;;;9.05;4.53;;;;;;;4.37;100.00;101242.88;232824;1203;103220;-73
2021/03/28 01:37:07;;;;;;;5.93;3.70;;;;;;;4.47;100.00;101251.66;232904;1203;103184;-72
2021/03/28 01:42:29;;;;;;;10.75;5.45;;;;;;;4.53;100.00;101249.01;232778;1203;103255;-72
2021/03/28 01:48:10;;;;;;;7.50;4.60;;;;;;;4.49;100.00;101256.93;232779;1203;103151;-71
2021/03/28 01:53:33;;;;;;;8.50;4.93;;;;;;;4.45;100.00;101261.33;232510;1203;108113;-73
2021/03/28 01:58:47;;;;;;;5.90;4.45;;;;;;;4.44;100.00;101268.39;232795;1203;103229;-72
2021/03/28 02:04:22;;;;;;;5.60;3.43;;;;;;;4.29;100.00;101276.30;232849;1203;103565;-72
2021/03/28 02:09:45;;;;;;;5.60;3.90;;;;;;;4.13;100.00;101283.34;232693;1203;103220;-73
2021/03/28 02:15:04;;;;;;;6.87;3.83;;;;;;;3.98;100.00;101282.45;233597;1203;103242;-72
2021/03/28 02:20:14;;;;;;;5.70;3.67;;;;;;;4.05;100.00;101283.34;232800;1203;103273;-73
2021/03/28 02:25:24;;;;;;;5.55;4.50;;;;;;;4.04;100.00;101278.95;232814;1203;103520;-72
2021/03/28 02:30:40;;;;;;;5.17;3.90;;;;;;;3.95;100.00;101282.42;232578;1203;103626;-73
2021/03/28 02:35:48;;;;;;;7.30;3.67;;;;;;;3.89;100.00;101282.42;233530;1203;103532;-73
2021/03/28 02:41:34;;;;;;;7.70;4.10;;;;;;;4.01;100.00;101291.25;233522;1203;103301;-72
2021/03/28 02:47:04;;;;;;;9.10;4.70;;;;;;;3.92;100.00;101290.36;232745;1203;103248;-73
2021/03/28 02:52:05;;;;;;;9.83;6.03;;;;;;;3.82;100.00;101307.02;233398;1203;103261;-72
2021/03/28 02:57:58;;;;;;;7.60;4.70;;;;;;;3.76;100.00;101301.73;233497;1203;103225;-72
2021/03/28 03:03:30;;;;;;;9.55;5.33;;;;;;;3.54;100.00;101312.21;233057;1203;103226;-75
2021/03/28 03:08:52;;;;;;;6.40;5.05;;;;;;;3.48;100.00;101325.38;232824;1203;103152;-73
2021/03/28 03:14:50;;;;;;;7.70;4.60;;;;;;;3.43;100.00;101327.12;233424;1203;103526;-72
2021/03/28 03:20:24;;;;;;;9.77;5.53;;;;;;;3.23;100.00;101330.55;233491;1206;103347;-70
2021/03/28 03:26:03;;;;;;;7.53;5.53;;;;;;;3.18;100.00;101319.98;233404;1203;109635;-72
2021/03/28 03:31:22;;;;;;;8.90;5.40;;;;;;;3.15;100.00;101334.88;232917;1203;103164;-73
2021/03/28 03:36:51;;;;;;;8.53;5.43;;;;;;;3.08;100.00;101348.89;232750;1203;103207;-74
2021/03/28 03:42:11;;;;;;;13.05;7.13;;;;;;;3.08;100.00;101362.94;232889;1203;103539;-72
2021/03/28 03:47:37;;;;;;;7.00;5.53;;;;;;;3.21;100.00;101358.63;233072;1203;103264;-73
2021/03/28 03:53:02;;;;;;;7.28;4.95;;;;;;;3.12;100.00;101369.10;233089;1203;103207;-72
2021/03/28 03:58:19;;;;;;;8.73;6.20;;;;;;;3.15;100.00;101377.91;233939;1203;103194;-72
2021/03/28 04:03:20;;;;;;;10.03;6.00;;;;;;;3.10;100.00;101394.58;234149;1203;103121;-74
2021/03/28 04:08:25;;;;;;;8.07;5.80;;;;;;;3.05;100.00;101397.18;232853;1203;103226;-73
2021/03/28 04:13:35;;;;;;;8.30;6.07;;;;;;;3.03;100.00;101405.05;232784;1203;103172;-74
2021/03/28 04:18:48;;;;;;;9.18;6.20;;;;;;;2.98;100.00;101406.77;233480;1203;103222;-73
2021/03/28 04:24:10;;;;;;;9.30;6.25;;;;;;;3.08;100.00;101422.66;232815;1203;103142;-75
2021/03/28 04:29:14;;;;;;;6.70;5.40;;;;;;;3.00;100.00;101420.84;233499;1203;103158;-74
2021/03/28 04:34:34;;;;;;;8.67;6.03;;;;;;;3.06;100.00;101429.66;233731;1203;103116;-72
2021/03/28 04:39:47;;;;;;;6.95;5.25;;;;;;;3.06;100.00;101422.66;233587;1203;103161;-72
2021/03/28 04:45:18;;;;;;;12.50;7.85;;;;;;;3.05;100.00;101434.06;233199;1203;103181;-72
2021/03/28 04:50:33;;;;;;;8.27;6.57;;;;;;;3.08;100.00;101431.43;233514;1203;103258;-73
2021/03/28 04:56:00;;;;;;;9.50;5.43;;;;;;;3.13;100.00;101432.38;233083;1203;103155;-72
2021/03/28 05:01:25;;;;;;;9.28;6.05;;;;;;;3.09;100.00;101432.33;232664;1203;103313;-72
2021/03/28 05:06:38;;;;;;;8.97;5.50;;;;;;;3.08;100.00;101435.83;232889;1203;103236;-73
2021/03/28 05:11:52;;;;;;;7.53;5.45;;;;;;;3.18;100.00;101446.45;232838;1203;103587;-72
2021/03/28 05:17:02;;;;;;;7.00;4.50;;;;;;;3.16;100.00;101452.59;233537;1203;103219;-72
2021/03/28 05:22:07;;;;;;;7.95;5.28;;;;;;;3.19;100.00;101455.23;232899;1203;103178;-75
2021/03/28 05:27:29;;;;;;;7.40;5.15;;;;;;;3.13;100.00;101453.45;232571;1203;103136;-73
2021/03/28 05:32:46;;;;;;;6.50;5.27;;;;;;;3.26;100.00;101470.22;232717;1203;103222;-73
2021/03/28 05:37:54;;;;;;;7.50;5.50;;;;;;;3.31;100.00;101471.13;233543;1203;103638;-73
2021/03/28 05:43:07;;;;;;;7.90;5.47;;;;;;;3.31;100.00;101472.89;233539;1203;103149;-74
2021/03/28 05:48:27;;;;;;;7.95;5.25;;;;;;;3.43;100.00;101478.23;233595;1203;118883;-73
2021/03/28 05:53:53;;;;;;;5.90;5.00;;;;;;;3.40;100.00;101479.97;233523;1203;103331;-72
2021/03/28 05:59:16;;;;;;;7.23;5.53;;;;;;;3.66;100.00;101490.70;233048;1203;103150;-72
2021/03/28 06:04:56;;;;;;;7.63;5.13;;;;;;;3.54;100.00;101504.68;232720;1203;103204;-72
2021/03/28 06:10:28;;;;;;;5.93;4.50;;;;;;;3.41;100.00;101510.73;232647;1203;103187;-72
2021/03/28 06:15:38;;;;;;;6.13;4.40;;;;;;;3.43;100.00;101512.51;232785;1203;103142;-73
2021/03/28 06:20:50;;;;;;;6.50;4.45;;;;;;;3.45;100.00;101516.05;232745;1203;103277;-74
2021/03/28 06:26:28;;;;;;;9.25;5.65;;;;;;;3.52;100.00;101524.91;233213;1179;114274;-74
2021/03/28 06:31:55;;;;;;;10.55;5.65;;;;;;;3.44;100.00;101532.73;232283;1180;114332;-72
2021/03/28 06:37:25;;;;;;;6.25;5.50;;;;;;;3.41;100.00;101545.00;232523;1180;115045;-74
2021/03/28 06:42:45;;;;;;;6.00;4.90;;;;;;;3.49;100.00;101535.41;232383;1179;114801;-73
2021/03/28 06:48:16;;;;;;;7.25;5.70;;;;;;;3.64;100.00;101543.44;232310;1179;114449;-74
2021/03/28 06:53:20;;;;;;;8.83;6.23;;;;;;;3.73;100.00;101547.02;232371;1179;114376;-77
2021/03/28 06:58:41;;;;;;;7.40;6.20;;;;;;;3.63;100.00;101549.58;233028;1179;114554;-76
2021/03/28 07:03:57;;;;;;;8.45;5.30;;;;;;;3.66;100.00;101560.13;232434;1178;114325;-75
2021/03/28 07:09:22;;;;;;;9.15;5.75;;;;;;;3.67;100.00;101558.39;233048;1178;114428;-76
2021/03/28 07:14:52;;;;;;;9.95;6.65;;;;;;;3.74;100.00;101556.66;233057;1179;114376;-75
2021/03/28 07:20:48;;;;;;;12.53;6.97;;;;;;;4.02;100.00;101568.30;233151;1179;114263;-75
2021/03/28 07:25:54;;;;;;;10.75;7.10;;;;;;;3.99;100.00;101569.16;232480;1179;114605;-74
2021/03/28 07:31:27;;;;;;;7.47;6.33;;;;;;;4.16;100.00;101573.63;232774;1180;114484;-74
2021/03/28 07:37:13;;;;;;;8.55;7.60;;;;;;;4.28;100.00;101581.64;233152;1178;114492;-75
2021/03/28 07:42:53;;;;;;;8.80;6.97;;;;;;;4.03;100.00;101593.81;233020;1178;114546;-75
2021/03/28 07:48:12;;;;;;;9.10;6.40;;;;;;;3.92;100.00;101598.12;232210;1178;114516;-75
2021/03/28 07:53:39;;;;;;;9.50;7.40;;;;;;;4.22;100.00;101605.37;232858;1178;114470;-77
2021/03/28 07:58:47;;;;;;;9.27;7.67;;;;;;;4.08;100.00;101610.55;233059;1178;114712;-75
2021/03/28 08:04:06;;;;;;;8.60;5.57;;;;;;;4.19;100.00;101607.97;234263;1179;115120;-75
2021/03/28 08:09:41;;;;;;;8.78;7.48;;;;;;;4.38;100.00;101608.06;235099;1179;114284;-77
2021/03/28 08:15:01;;;;;;;8.65;6.75;;;;;;;4.27;100.00;101615.92;235470;1178;114414;-77
2021/03/28 08:20:14;;;;;;;10.83;8.37;;;;;;;4.65;100.00;101602.03;233510;1179;115838;-76
2021/03/28 08:25:53;;;;;;;9.15;8.10;;;;;;;4.56;100.00;101613.45;233012;1179;114536;-74
2021/03/28 08:31:30;;;;;;;7.70;5.50;;;;;;;4.38;100.00;101610.70;232081;1180;115780;-75
2021/03/28 08:37:12;;;;;;;6.90;5.40;;;;;;;4.36;100.00;101621.27;232701;1179;114961;-75
2021/03/28 08:42:25;;;;;;;4.80;3.85;;;;;;;4.37;100.00;101632.73;232406;1179;114813;-75
2021/03/28 08:48:14;;;;;;;8.40;6.80;;;;;;;4.56;100.00;101623.12;232444;1179;114520;-69
2021/03/28 08:53:46;;;;;;;11.30;7.30;;;;;;;4.54;100.00;101633.68;232847;1178;114354;-75
2021/03/28 08:59:06;;;;;;;12.60;5.83;;;;;;;4.51;100.00;101638.94;233231;1179;114691;-73
2021/03/28 09:04:40;;;;;;;6.93;5.67;;;;;;;4.80;100.00;101635.55;232625;1179;114514;-72
2021/03/28 09:10:00;;;;;;;6.77;5.10;;;;;;;5.02;100.00;101635.61;233140;1179;114637;-75
2021/03/28 09:15:12;;;;;;;12.10;7.20;;;;;;;5.03;100.00;101629.45;233148;1179;114739;-76
2021/03/28 09:20:35;;;;;;;9.20;6.30;;;;;;;5.02;100.00;101632.97;232946;1178;114675;-74
2021/03/28 09:25:51;;;;;;;7.80;5.50;;;;;;;5.25;100.00;101644.50;232960;1179;114934;-74
2021/03/28 09:31:37;;;;;;;11.10;7.90;;;;;;;5.08;100.00;101638.27;232954;1179;114615;-75
2021/03/28 09:36:42;;;;;;;11.50;7.50;;;;;;;5.10;100.00;101639.16;232325;1178;114685;-75
2021/03/28 09:42:03;;;;;;;12.07;7.10;;;;;;;5.41;100.00;101663.04;235063;1178;115894;-74
2021/03/28 09:47:37;;;;;;;5.47;4.93;;;;;;;5.56;100.00;101646.30;234455;1180;114618;-73
2021/03/28 09:52:54;;;;;;;10.00;7.03;;;;;;;5.69;100.00;101648.06;232928;1178;114511;-73
2021/03/28 09:58:36;;;;;;;9.40;6.00;;;;;;;5.49;100.00;101656.00;234051;1178;115351;-76
2021/03/28 10:04:04;;;;;;;8.15;4.60;;;;;;;5.48;100.00;101659.53;234892;1178;114500;-71
2021/03/28 10:09:19;;;;;;;7.57;5.57;;;;;;;5.74;98.33;101656.01;232190;1179;115012;-74
2021/03/28 10:14:39;;;;;;;;;;;;;;;5.99;96.01;101666.64;232817;1179;114327;-74
2021/03/28 10:19:44;;;;;;;7.30;5.10;;;;;;;5.87;95.48;101647.19;232755;1176;103171;-72
2021/03/28 10:25:10;;;;;;;6.10;4.50;;;;;;;6.37;93.89;101657.73;232409;1180;114309;-74
2021/03/28 10:30:37;;;;;;;9.57;6.03;;;;;;;6.42;94.23;101649.79;232398;1179;114285;-74
2021/03/28 10:36:13;;;;;;;6.57;4.77;;;;;;;6.18;89.53;101652.49;232421;1179;114109;-73
2021/03/28 10:41:17;;;;;;;6.50;4.25;;;;;;;6.56;89.50;101636.48;232500;1178;114296;-73
2021/03/28 10:46:24;;;;;;;7.30;4.90;;;;;;;6.96;87.03;101646.94;232608;1180;114495;-73
2021/03/28 10:52:03;;;;;;;6.23;4.98;;;;;;;7.13;83.71;101645.06;232523;1179;114904;-73
2021/03/28 10:57:30;;;;;;;5.78;3.48;;;;;;;7.09;82.13;101650.39;232773;1171;114178;-76
2021/03/28 11:02:53;;;;;;;5.80;4.05;;;;;;;6.99;84.37;101647.81;232715;1178;114619;-75
2021/03/28 11:08:32;;;;;;;5.47;4.20;;;;;;;6.62;82.98;101660.34;232691;1179;115304;-73
2021/03/28 11:14:07;;;;;;;7.20;4.10;;;;;;;6.80;82.74;101652.30;232730;1178;114465;-75
2021/03/28 11:19:46;;;;;;;7.40;5.07;;;;;;;6.77;86.23;101654.95;232564;1179;114366;-76
2021/03/28 11:24:51;;;;;;;7.83;5.93;;;;;;;7.17;86.00;101652.13;233272;1178;114765;-75
2021/03/28 11:30:11;;;;;;;9.60;4.50;;;;;;;7.34;84.33;101641.41;233485;1180;114692;-75
2021/03/28 11:35:18;;;;;;;8.70;4.77;;;;;;;8.10;80.90;101645.22;232823;1178;114300;-71
2021/03/28 11:40:39;;;;;;;7.60;6.00;;;;;;;8.68;76.51;101646.39;232536;1178;115574;-76
2021/03/28 11:45:49;;;;;;;7.35;4.05;;;;;;;8.63;70.89;101642.91;232898;1179;115591;-74
2021/03/28 11:50:53;;;;;;;4.10;3.40;;;;;;;8.08;73.62;101642.59;232400;1178;114446;-74
2021/03/28 11:56:01;;;;;;;6.38;3.30;;;;;;;9.99;66.32;101637.37;232663;1179;115157;-74
2021/03/28 12:01:03;;;;;;;7.10;4.45;;;;;;;8.31;70.84;101638.83;232760;1178;114491;-74
2021/03/28 12:06:17;;;;;;;6.93;3.80;;;;;;;7.72;70.29;101639.36;232482;1178;114562;-74
2021/03/28 12:11:28;;;;;;;5.60;3.10;;;;;;;8.22;69.11;101645.09;232644;1180;114373;-74
2021/03/28 12:17:11;;;;;;;7.95;4.35;;;;;;;7.59;71.37;101654.49;232708;1179;114570;-76
2021/03/28 12:22:28;;;;;;;6.30;3.90;;;;;;;8.54;69.73;101635.94;233147;1178;114421;-76
2021/03/28 12:27:47;;;;;;;7.65;3.95;;;;;;;7.96;69.85;101643.58;233445;1179;114856;-77
2021/03/28 12:33:19;;;;;;;6.48;4.25;;;;;;;7.76;71.66;101640.22;233296;1180;114516;-75
2021/03/28 12:38:27;;;;;;;4.75;3.60;;;;;;;9.13;67.12;101639.62;232712;1180;114870;-76
2021/03/28 12:43:35;;;;;;;5.70;3.80;;;;;;;7.92;70.19;101646.27;232910;1178;114482;-74
2021/03/28 12:48:38;;;;;;;5.95;3.10;;;;;;;9.94;63.00;101640.11;233063;1179;114479;-75
2021/03/28 12:53:40;;;;;;;7.07;3.97;;;;;;;10.34;59.06;101633.17;233056;1178;114826;-74
2021/03/28 12:58:43;;;;;;;4.90;2.60;;;;;;;11.19;49.26;101644.80;233216;1178;114490;-75
2021/03/28 13:03:47;;;;;;;3.15;2.25;;;;;;;9.66;51.28;101645.03;233065;1179;115120;-75
2021/03/28 13:08:51;;;;;;;5.80;3.00;;;;;;;9.12;53.57;101640.52;233291;1179;114868;-74
2021/03/28 13:13:53;;;;;;;3.90;2.70;;;;;;;8.57;54.90;101645.65;233317;1179;114375;-76
2021/03/28 13:18:58;;;;;;;5.90;3.20;;;;;;;9.09;55.38;101639.64;233436;1179;114440;-74
2021/03/28 13:24:05;;;;;;;4.67;3.40;;;;;;;9.34;56.34;101646.42;233114;1178;114494;-74
2021/03/28 13:29:12;;;;;;;5.37;2.73;;;;;;;9.12;56.61;101651.16;233549;1179;114686;-74
2021/03/28 13:34:46;;;;;;;5.50;2.60;;;;;;;10.24;52.53;101664.45;233475;1179;114894;-75
2021/03/28 13:40:12;;;;;;;4.40;2.93;;;;;;;9.87;53.26;101654.44;233898;1180;114635;-74
2021/03/28 13:45:16;;;;;;;5.20;2.75;;;;;;;11.29;50.74;101648.99;233372;1179;114441;-75
2021/03/28 13:50:27;;;;;;;7.55;3.73;;;;;;;11.39;48.24;101656.80;233328;1179;115229;-74
2021/03/28 13:55:59;;;;;;;5.45;3.00;;;;;;;12.20;46.83;101653.91;233293;1179;115165;-77
2021/03/28 14:01:28;;;;;;;3.60;2.70;;;;;;;10.58;48.80;101657.64;233391;1179;115426;-76
2021/03/28 14:06:37;;;;;;;7.10;3.20;;;;;;;9.38;52.73;101654.31;233524;1179;114745;-76
2021/03/28 14:11:50;;;;;;;5.00;3.10;;;;;;;9.36;53.58;101663.23;232603;1178;114931;-77
2021/03/28 14:16:55;;;;;;;5.60;3.65;;;;;;;8.55;55.04;101663.38;233142;1180;114322;-73
2021/03/28 14:22:28;;;;;;;6.43;3.48;;;;;;;8.77;56.25;101648.08;233231;1179;114647;-74
2021/03/28 14:27:38;;;;;;;6.30;3.70;;;;;;;10.81;49.31;101643.83;232924;1179;114733;-76
2021/03/28 14:32:44;;;;;;;7.00;3.50;;;;;;;10.53;50.17;101644.39;233004;1179;114543;-77
2021/03/28 14:38:34;;;;;;;5.50;3.00;;;;;;;9.07;51.77;101665.41;233411;1179;114605;-73
2021/03/28 14:44:20;;;;;;;4.07;2.67;;;;;;;8.92;53.74;101663.81;234140;1179;114383;-76
2021/03/28 14:49:39;;;;;;;4.45;2.65;;;;;;;9.59;51.71;101657.55;234448;1180;114685;-74
2021/03/28 14:54:53;;;;;;;5.70;2.95;;;;;;;8.93;55.07;101664.71;233482;1179;114421;-74
2021/03/28 15:00:14;;;;;;;4.60;2.83;;;;;;;9.40;53.69;101662.30;233312;1179;114410;-74
2021/03/28 15:05:36;;;;;;;4.93;3.33;;;;;;;8.81;55.12;101655.10;233749;1179;114799;-74
2021/03/28 15:10:49;;;;;;;7.90;5.60;;;;;;;8.57;56.07;101661.59;233387;1179;114869;-76
2021/03/28 15:15:57;;;;;;;5.93;3.25;;;;;;;8.59;56.24;101659.81;233779;1179;114481;-75
2021/03/28 15:21:03;;;;;;;8.15;3.70;;;;;;;9.01;54.86;101657.52;233385;1179;114384;-76
2021/03/28 15:26:41;;;;;;;7.00;4.95;;;;;;;8.76;53.67;101668.45;233247;1179;114375;-76
2021/03/28 15:31:55;;;;;;;8.70;3.65;;;;;;;8.82;55.47;101663.95;233209;1179;114753;-75
2021/03/28 15:37:08;;;;;;;5.60;2.95;;;;;;;8.54;55.72;101661.62;233613;1178;114288;-76
2021/03/28 15:42:29;;;;;;;6.60;3.70;;;;;;;8.87;53.94;101664.80;233408;1179;114955;-77
2021/03/28 15:48:06;;;;;;;6.80;3.40;;;;;;;8.28;54.90;101662.75;233217;1179;114226;-76
2021/03/28 15:53:14;;;;;;;6.15;3.13;;;;;;;8.05;55.95;101663.85;234111;1179;114875;-75
2021/03/28 15:58:51;;;;;;;7.45;3.10;;;;;;;8.33;55.04;101655.61;233298;1178;114774;-77
2021/03/28 16:04:15;;;;;;;5.30;2.60;;;;;;;8.12;56.00;101662.90;233272;1179;116512;-78
2021/03/28 16:09:54;;;;;;;6.60;3.40;;;;;;;7.81;57.20;101671.16;233641;1179;114511;-75
2021/03/28 16:15:20;;;;;;;5.80;3.30;;;;;;;7.70;59.11;101667.69;233213;1179;114307;-76
2021/03/28 16:21:01;;;;;;;8.05;4.10;;;;;;;7.69;60.30;101668.57;233185;1178;114996;-75
2021/03/28 16:26:11;;;;;;;4.58;2.98;;;;;;;7.71;59.13;101672.10;232797;1178;114385;-78
2021/03/28 16:31:27;;;;;;;5.05;2.90;;;;;;;7.89;58.78;101667.55;233175;1179;114239;-77
2021/03/28 16:36:53;;;;;;;4.20;2.45;;;;;;;8.00;59.18;101660.36;233337;1179;114213;-77
2021/03/28 16:42:14;;;;;;;7.70;3.10;;;;;;;7.88;59.16;101671.09;233581;1178;114430;-73
2021/03/28 16:47:24;;;;;;;5.05;3.40;;;;;;;7.67;59.73;101665.07;233658;1179;114610;-74
2021/03/28 16:52:34;;;;;;;10.78;6.73;;;;;;;7.41;61.17;101667.90;233637;1177;114631;-76
2021/03/28 16:57:36;;;;;;;10.90;7.90;;;;;;;7.26;62.52;101663.59;233073;1179;114419;-79
2021/03/28 17:02:41;;;;;;;6.90;5.30;;;;;;;7.11;62.78;101669.83;233636;1179;114790;-77
2021/03/28 17:07:59;;;;;;;;;;;;;;;7.04;62.86;101665.45;233227;1180;114218;-78
2021/03/28 17:13:26;;;;;;;4.80;3.30;;;;;;;6.89;63.04;101677.88;233550;1177;103232;-76
2021/03/28 17:18:37;;;;;;;5.60;4.45;;;;;;;6.83;63.54;101675.27;233475;1180;114075;-77
2021/03/28 17:24:00;;;;;;;7.00;4.53;;;;;;;6.76;63.55;101677.08;233316;1180;114108;-76
2021/03/28 17:29:25;;;;;;;9.40;7.05;;;;;;;6.70;64.23;101674.41;233137;1178;114406;-75
2021/03/28 17:34:50;;;;;;;8.90;5.80;;;;;;;6.69;63.48;101675.33;233120;1179;114394;-75
2021/03/28 17:39:54;;;;;;;;;;;;;;;6.60;63.23;101685.95;233130;1178;114077;-76
2021/03/28 17:45:31;;;;;;;7.97;4.77;;;;;;;6.50;64.05;101680.66;233296;1177;103153;-74
2021/03/28 17:50:33;;;;;;;5.83;4.30;;;;;;;6.37;64.48;101689.52;233315;1179;114717;-74
2021/03/28 17:55:38;;;;;;;7.20;5.20;;;;;;;6.21;67.51;101694.84;233328;1178;114182;-75
2021/03/28 18:00:53;;;;;;;11.10;6.50;;;;;;;6.14;67.51;101698.38;234022;1179;114031;-75
2021/03/28 18:06:01;;;;;;;8.95;7.00;;;;;;;6.25;66.10;101694.84;236186;1179;114516;-75
2021/03/28 18:11:08;;;;;;;8.30;6.00;;;;;;;6.08;67.88;101693.09;237977;1180;114342;-74
2021/03/28 18:16:20;;;;;;;14.40;8.25;;;;;;;5.81;69.42;101699.25;235396;1179;114221;-75
2021/03/28 18:21:55;;;;;;;15.98;9.28;;;;;;;5.96;68.46;101698.36;233347;1179;114773;-74
2021/03/28 18:27:00;;;;;;;14.70;9.30;;;;;;;5.77;69.33;101695.72;233560;1179;114410;-76
2021/03/28 18:32:17;;;;;;;30.80;18.60;;;;;;;5.52;72.93;101700.95;233133;1177;114559;-76
2021/03/28 18:37:28;;;;;;;27.23;21.20;;;;;;;5.44;70.37;101705.34;233289;1179;114613;-75
2021/03/28 18:42:32;;;;;;;17.20;13.83;;;;;;;5.70;67.30;101717.75;233322;1179;114461;-75
2021/03/28 18:47:35;;;;;;;14.15;10.25;;;;;;;5.74;66.34;101714.22;233164;1178;114500;-75
2021/03/28 18:52:37;;;;;;;17.90;12.27;;;;;;;5.72;66.09;101716.88;233276;1179;115136;-75
2021/03/28 18:57:51;;;;;;;17.45;12.25;;;;;;;5.69;65.78;101713.34;233152;1179;114641;-73
2021/03/28 19:03:02;;;;;;;20.30;13.30;;;;;;;5.60;66.09;101716.86;233273;1179;114501;-75
2021/03/28 19:08:41;;;;;;;20.28;14.83;;;;;;;5.41;66.31;101719.45;233401;1179;117823;-76
2021/03/28 19:13:59;;;;;;;24.37;17.57;;;;;;;5.28;66.88;101714.14;233246;1179;114587;-75
2021/03/28 19:19:15;;;;;;;23.23;16.87;;;;;;;5.23;66.63;101725.56;233193;1179;114652;-76
2021/03/28 19:24:19;;;;;;;21.80;14.57;;;;;;;5.13;66.54;101729.06;233044;1179;114496;-75
2021/03/28 19:29:42;;;;;;;19.97;13.57;;;;;;;5.12;66.38;101724.65;233323;1179;115087;-75
2021/03/28 19:35:03;;;;;;;19.80;14.30;;;;;;;5.04;66.45;101721.09;233310;1178;114543;-75
2021/03/28 19:40:26;;;;;;;16.30;12.10;;;;;;;5.03;66.14;101716.67;233203;1180;114477;-75
2021/03/28 19:45:50;;;;;;;18.40;14.20;;;;;;;4.97;66.25;101714.88;233095;1180;114737;-76
2021/03/28 19:50:53;;;;;;;24.03;13.10;;;;;;;4.94;66.06;101721.04;233297;1179;114558;-76
2021/03/28 19:55:59;;;;;;;16.37;11.50;;;;;;;4.90;66.08;101713.98;233084;1179;114797;-74
2021/03/28 20:01:01;;;;;;;18.35;12.55;;;;;;;4.83;65.96;101714.83;233217;1180;115990;-74
2021/03/28 20:06:03;;;;;;;20.00;11.85;;;;;;;4.84;66.31;101713.05;233210;1179;114871;-75
2021/03/28 20:11:12;;;;;;;16.67;11.20;;;;;;;4.84;65.52;101711.31;233599;1179;114437;-75
2021/03/28 20:16:22;;;;;;;17.90;10.50;;;;;;;4.79;65.38;101710.42;233423;1179;114491;-74
2021/03/28 20:21:37;;;;;;;20.00;11.90;;;;;;;4.69;66.07;101713.88;233460;1179;114598;-75
2021/03/28 20:26:51;;;;;;;16.80;10.95;;;;;;;4.67;66.03;101715.61;233339;1180;114615;-75
2021/03/28 20:32:00;;;;;;;16.20;11.80;;;;;;;4.70;66.00;101718.28;233705;1180;114475;-74
2021/03/28 20:37:04;;;;;;;16.27;10.87;;;;;;;4.59;66.74;101724.38;233407;1202;103280;-75
2021/03/28 20:42:10;;;;;;;16.63;11.53;;;;;;;4.55;66.69;101719.06;233930;1203;103232;-75
2021/03/28 20:47:23;;;;;;;19.00;11.40;;;;;;;4.50;67.32;101719.06;233986;1202;104547;-74
2021/03/28 20:52:36;;;;;;;13.00;10.13;;;;;;;4.50;67.54;101713.78;233940;1202;103219;-76
2021/03/28 20:57:38;;;;;;;16.07;10.43;;;;;;;4.47;67.63;101714.61;233160;1202;103255;-78
2021/03/28 21:02:48;;;;;;;15.80;10.15;;;;;;;4.42;67.90;101705.78;233811;1203;103221;-75
2021/03/28 21:08:12;;;;;;;14.70;9.60;;;;;;;4.50;67.56;101713.78;233934;1202;103552;-74
2021/03/28 21:13:16;;;;;;;16.20;9.50;;;;;;;4.52;67.33;101712.01;233938;1170;103532;-76
2021/03/28 21:18:20;;;;;;;16.70;9.00;;;;;;;4.46;67.63;101707.59;233483;1204;103152;-75
2021/03/28 21:23:23;;;;;;;12.87;9.10;;;;;;;4.44;67.63;101713.74;236603;1205;103528;-73
2021/03/28 21:28:26;;;;;;;13.08;9.23;;;;;;;4.46;67.78;101711.97;235449;1203;103223;-74
2021/03/28 21:33:30;;;;;;;14.67;9.27;;;;;;;4.46;67.79;101719.89;235807;1205;103155;-74
2021/03/28 21:38:33;;;;;;;13.63;9.30;;;;;;;4.43;68.08;101715.48;233764;1206;103225;-73
2021/03/28 21:43:40;;;;;;;13.00;9.05;;;;;;;4.36;68.45;101720.72;233681;1206;103222;-76
2021/03/28 21:48:53;;;;;;;15.30;9.53;;;;;;;4.30;69.09;101719.78;233386;1204;103271;-74
2021/03/28 21:53:55;;;;;;;14.10;8.60;;;;;;;4.30;69.14;101721.55;233541;1206;103217;-74
2021/03/28 21:58:56;;;;;;;14.43;9.15;;;;;;;4.27;69.17;101714.50;233558;1205;103229;-75
2021/03/28 22:04:06;;;;;;;14.13;9.30;;;;;;;4.24;69.26;101727.66;232913;1206;103236;-74
2021/03/28 22:09:10;;;;;;;17.50;11.15;;;;;;;4.14;69.91;101720.56;232884;1206;103226;-73
2021/03/28 22:14:12;;;;;;;15.65;9.40;;;;;;;4.15;69.75;101714.41;232978;1205;103568;-73
2021/03/28 22:19:20;;;;;;;15.95;10.50;;;;;;;4.13;70.04;101719.66;233329;1206;103305;-74
2021/03/28 22:24:25;;;;;;;12.73;8.90;;;;;;;4.11;69.98;101720.52;234158;1205;103229;-75
2021/03/28 22:29:30;;;;;;;13.50;8.17;;;;;;;4.14;69.90;101725.84;234202;1206;103150;-74
2021/03/28 22:34:32;;;;;;;12.60;8.30;;;;;;;4.12;69.69;101723.16;233592;1206;103213;-74
2021/03/28 22:39:33;;;;;;;13.60;7.95;;;;;;;4.11;69.53;101715.24;233415;1206;103223;-75
2021/03/28 22:44:36;;;;;;;15.00;8.77;;;;;;;4.08;70.02;101715.23;233835;1206;103235;-73
2021/03/28 22:49:38;;;;;;;11.85;8.80;;;;;;;3.98;70.48;101709.88;233844;1206;103201;-74
2021/03/28 22:54:39;;;;;;;13.13;9.08;;;;;;;4.00;70.57;101712.52;234038;1205;103185;-74
2021/03/28 22:59:43;;;;;;;13.80;9.60;;;;;;;3.96;70.74;101711.61;232812;1207;103146;-74
2021/03/28 23:04:47;;;;;;;16.70;10.40;;;;;;;3.94;71.14;101713.38;233627;1204;103344;-74
2021/03/28 23:09:50;;;;;;;16.00;10.03;;;;;;;3.91;71.35;101705.41;233327;1206;103159;-73
2021/03/28 23:14:59;;;;;;;14.10;10.30;;;;;;;3.96;71.21;101716.02;232899;1206;103140;-74
2021/03/28 23:20:05;;;;;;;16.40;10.40;;;;;;;3.95;71.33;101709.83;233617;1206;103151;-74
2021/03/28 23:25:07;;;;;;;17.10;10.40;;;;;;;4.01;71.34;101708.14;233561;1206;103210;-74
2021/03/28 23:30:09;;;;;;;15.20;10.40;;;;;;;3.99;71.21;101711.64;233510;1206;103201;-74
2021/03/28 23:35:12;;;;;;;15.90;9.90;;;;;;;3.95;71.54;101707.19;233607;1205;103156;-73
2021/03/28 23:40:14;;;;;;;16.35;10.55;;;;;;;3.94;71.77;101708.09;233472;1206;103624;-74
2021/03/28 23:45:27;;;;;;;17.60;10.30;;;;;;;3.93;72.08;101708.95;233354;1205;103214;-74
2021/03/28 23:50:30;;;;;;;17.10;10.77;;;;;;;3.96;71.89;101711.61;232822;1205;103606;-74
2021/03/28 23:55:33;;;;;;;15.63;9.97;;;;;;;3.91;71.96;101704.55;232839;1206;103251;-75
